createdAt,value
2023-02-05T00:02:14.981Z,90.53
2023-02-05T00:04:42.157Z,90.69
2023-02-05T00:07:09.528Z,91.16
2023-02-05T00:09:36.501Z,91.13
2023-02-05T00:12:05.044Z,91.96
2023-02-05T00:14:32.272Z,92.24
2023-02-05T00:17:00.557Z,92.13
2023-02-05T00:19:27.700Z,92.35
2023-02-05T00:21:57.030Z,91.91
2023-02-05T00:24:24.108Z,92.28
2023-02-05T00:26:51.503Z,92.28
2023-02-05T00:29:18.361Z,92.66
2023-02-05T00:31:45.368Z,92.68
2023-02-05T00:34:14.003Z,92.76
2023-02-05T00:36:40.807Z,92.50
2023-02-05T00:39:07.878Z,92.67
2023-02-05T00:41:35.474Z,93.08
2023-02-05T00:44:02.297Z,92.92
2023-02-05T00:46:30.865Z,93.12
2023-02-05T00:48:58.018Z,93.45
2023-02-05T00:51:26.358Z,93.52
2023-02-05T00:53:53.034Z,93.18
2023-02-05T00:56:19.943Z,93.25
2023-02-05T00:58:48.020Z,94.02
2023-02-05T01:01:16.569Z,94.33
2023-02-05T01:03:44.062Z,94.58
2023-02-05T01:06:11.179Z,94.12
2023-02-05T01:08:39.281Z,94.66
2023-02-05T01:11:07.620Z,94.87
2023-02-05T01:13:34.743Z,95.47
2023-02-05T01:16:01.672Z,95.42
2023-02-05T01:18:28.671Z,95.46
2023-02-05T01:20:55.560Z,95.12
2023-02-05T01:23:22.665Z,95.16
2023-02-05T01:25:50.999Z,95.41
2023-02-05T01:28:18.379Z,95.82
2023-02-05T01:30:49.979Z,95.44
2023-02-05T01:33:17.971Z,96.82
2023-02-05T01:35:45.373Z,97.59
2023-02-05T01:38:12.216Z,96.77
2023-02-05T01:40:39.399Z,96.73
2023-02-05T01:43:12.222Z,96.72
2023-02-05T01:45:55.403Z,97.13
2023-02-05T01:48:27.951Z,97.21
2023-02-05T01:51:01.887Z,97.45
2023-02-05T01:53:31.639Z,97.19
2023-02-05T01:56:03.463Z,96.85
2023-02-05T01:58:36.882Z,97.08
2023-02-05T02:01:03.861Z,97.66
2023-02-05T02:03:31.980Z,97.57
2023-02-05T02:05:59.043Z,97.23
2023-02-05T02:08:25.985Z,97.00
2023-02-05T02:10:56.598Z,97.42
2023-02-05T02:13:29.095Z,97.34
2023-02-05T02:15:57.903Z,97.53
2023-02-05T02:18:26.677Z,98.01
2023-02-05T02:21:18.412Z,98.59
2023-02-05T02:24:00.608Z,98.58
2023-02-05T02:26:46.980Z,98.91
2023-02-05T02:29:22.120Z,98.46
2023-02-05T02:31:57.186Z,98.45
2023-02-05T02:34:30.383Z,98.75
2023-02-05T02:37:01.320Z,98.34
2023-02-05T02:39:32.791Z,98.82
2023-02-05T02:42:05.226Z,99.07
2023-02-05T02:44:43.407Z,99.39
2023-02-05T02:47:16.215Z,99.25
2023-02-05T02:49:47.866Z,99.36
2023-02-05T02:52:18.941Z,100.00
2023-02-05T02:54:48.739Z,100.00
2023-02-05T02:57:17.652Z,100.00
2023-02-05T02:59:48.237Z,100.00
2023-02-05T03:02:16.487Z,100.00
2023-02-05T03:04:48.061Z,100.00
2023-02-05T03:07:19.491Z,100.00
2023-02-05T03:09:52.637Z,100.00
2023-02-05T03:12:20.125Z,100.00
2023-02-05T03:14:49.174Z,100.00
2023-02-05T03:17:16.416Z,100.00
2023-02-05T03:19:43.340Z,100.00
2023-02-05T03:22:10.254Z,100.00
2023-02-05T03:24:38.232Z,100.00
2023-02-05T03:27:05.460Z,100.00
2023-02-05T03:29:34.998Z,100.00
2023-02-05T03:32:14.680Z,100.00
2023-02-05T03:34:51.178Z,100.00
2023-02-05T03:37:28.298Z,100.00
2023-02-05T03:40:07.285Z,100.00
2023-02-05T03:42:42.293Z,100.00
2023-02-05T03:45:33.520Z,100.00
2023-02-05T03:48:25.754Z,100.00
2023-02-05T03:50:59.776Z,100.00
2023-02-05T03:53:37.070Z,100.00
2023-02-05T03:56:06.644Z,100.00
2023-02-05T03:58:39.495Z,100.00
2023-02-05T04:01:07.954Z,100.00
2023-02-05T04:03:36.286Z,100.00
2023-02-05T04:06:03.403Z,100.00
2023-02-05T04:08:33.078Z,100.00
2023-02-05T04:11:00.405Z,100.00
2023-02-05T04:13:30.768Z,100.00
2023-02-05T04:15:57.525Z,100.00
2023-02-05T04:18:24.629Z,100.00
2023-02-05T04:20:53.086Z,100.00
2023-02-05T04:23:19.934Z,100.00
2023-02-05T04:25:46.891Z,100.00
2023-02-05T04:28:14.471Z,100.00
2023-02-05T04:30:43.623Z,100.00
2023-02-05T04:33:11.485Z,100.00
2023-02-05T04:35:40.344Z,100.00
2023-02-05T04:38:11.804Z,100.00
2023-02-05T04:40:38.588Z,100.00
2023-02-05T04:43:05.735Z,100.00
2023-02-05T04:45:32.689Z,100.00
2023-02-05T04:48:00.418Z,100.00
2023-02-05T04:50:27.454Z,100.00
2023-02-05T04:52:54.616Z,100.00
2023-02-05T04:55:23.388Z,100.00
2023-02-05T04:57:52.540Z,100.00
2023-02-05T05:00:19.752Z,100.00
2023-02-05T05:02:46.984Z,100.00
2023-02-05T05:05:13.881Z,100.00
2023-02-05T05:07:43.162Z,100.00
2023-02-05T05:10:13.761Z,100.00
2023-02-05T05:12:45.026Z,100.00
2023-02-05T05:15:11.855Z,100.00
2023-02-05T05:17:38.806Z,100.00
2023-02-05T05:20:06.530Z,100.00
2023-02-05T05:22:33.997Z,100.00
2023-02-05T05:25:01.979Z,100.00
2023-02-05T05:27:31.524Z,100.00
2023-02-05T05:29:59.910Z,100.00
2023-02-05T05:32:28.111Z,100.00
2023-02-05T05:34:55.018Z,100.00
2023-02-05T05:37:21.897Z,100.00
2023-02-05T05:39:48.754Z,100.00
2023-02-05T05:42:15.628Z,100.00
2023-02-05T05:44:44.706Z,100.00
2023-02-05T05:47:14.025Z,100.00
2023-02-05T05:49:41.968Z,100.00
2023-02-05T05:52:08.842Z,100.00
2023-02-05T05:54:36.273Z,100.00
2023-02-05T05:57:07.675Z,100.00
2023-02-05T05:59:34.467Z,100.00
2023-02-05T06:02:04.206Z,100.00
2023-02-05T06:04:34.769Z,100.00
2023-02-05T06:07:01.624Z,100.00
2023-02-05T06:09:28.565Z,100.00
2023-02-05T06:11:56.040Z,100.00
2023-02-05T06:14:22.916Z,100.00
2023-02-05T06:16:49.942Z,100.00
2023-02-05T06:19:17.118Z,100.00
2023-02-05T06:21:47.922Z,100.00
2023-02-05T06:24:15.815Z,100.00
2023-02-05T06:26:42.751Z,100.00
2023-02-05T06:29:10.986Z,100.00
2023-02-05T06:31:38.504Z,100.00
2023-02-05T06:34:05.723Z,100.00
2023-02-05T06:36:33.015Z,100.00
2023-02-05T06:39:01.491Z,100.00
2023-02-05T06:41:28.296Z,100.00
2023-02-05T06:43:55.499Z,100.00
2023-02-05T06:46:23.655Z,100.00
2023-02-05T06:48:52.248Z,100.00
2023-02-05T06:51:19.541Z,100.00
2023-02-05T06:53:51.413Z,100.00
2023-02-05T06:56:21.343Z,100.00
2023-02-05T06:58:48.163Z,100.00
2023-02-05T07:01:14.965Z,100.00
2023-02-05T07:03:44.277Z,100.00
2023-02-05T07:06:11.532Z,100.00
2023-02-05T07:08:40.958Z,100.00
2023-02-05T07:11:07.838Z,100.00
2023-02-05T07:13:39.579Z,100.00
2023-02-05T07:16:08.055Z,100.00
2023-02-05T07:18:35.973Z,100.00
2023-02-05T07:21:05.928Z,100.00
2023-02-05T07:23:36.185Z,100.00
2023-02-05T07:26:07.888Z,100.00
2023-02-05T07:28:36.494Z,100.00
2023-02-05T07:31:06.396Z,100.00
2023-02-05T07:33:33.580Z,100.00
2023-02-05T07:36:03.111Z,100.00
2023-02-05T07:38:30.005Z,100.00
2023-02-05T07:40:57.048Z,100.00
2023-02-05T07:43:23.892Z,100.00
2023-02-05T07:45:57.497Z,100.00
2023-02-05T07:48:24.789Z,100.00
2023-02-05T07:50:51.694Z,100.00
2023-02-05T07:53:22.796Z,100.00
2023-02-05T07:55:49.887Z,100.00
2023-02-05T07:58:16.859Z,100.00
2023-02-05T08:00:44.042Z,100.00
2023-02-05T08:03:12.836Z,100.00
2023-02-05T08:05:40.937Z,100.00
2023-02-05T08:08:08.133Z,100.00
2023-02-05T08:10:35.298Z,100.00
2023-02-05T08:13:02.107Z,100.00
2023-02-05T08:15:28.913Z,100.00
2023-02-05T08:17:55.849Z,100.00
2023-02-05T08:20:24.346Z,100.00
2023-02-05T08:22:51.131Z,100.00
2023-02-05T08:25:17.991Z,100.00
2023-02-05T08:27:45.203Z,100.00
2023-02-05T08:30:15.017Z,99.59
2023-02-05T08:32:47.898Z,98.67
2023-02-05T08:35:14.729Z,98.78
2023-02-05T08:37:42.976Z,98.41
2023-02-05T08:40:11.087Z,97.81
2023-02-05T08:42:38.219Z,97.74
2023-02-05T08:45:05.509Z,97.45
2023-02-05T08:47:32.219Z,96.75
2023-02-05T08:50:00.645Z,97.16
2023-02-05T08:52:27.594Z,96.70
2023-02-05T08:54:56.180Z,96.10
2023-02-05T08:57:26.655Z,96.31
2023-02-05T08:59:54.181Z,95.56
2023-02-05T09:02:21.605Z,93.89
2023-02-05T09:04:50.287Z,94.17
2023-02-05T09:07:18.317Z,94.76
2023-02-05T09:09:45.328Z,94.83
2023-02-05T09:12:15.184Z,94.28
2023-02-05T09:14:42.058Z,93.77
2023-02-05T09:17:10.443Z,93.77
2023-02-05T09:19:39.027Z,94.09
2023-02-05T09:22:09.686Z,94.83
2023-02-05T09:24:37.835Z,94.46
2023-02-05T09:27:06.631Z,94.14
2023-02-05T09:29:36.551Z,94.16
2023-02-05T09:32:03.955Z,94.21
2023-02-05T09:34:33.613Z,93.42
2023-02-05T09:37:01.327Z,93.44
2023-02-05T09:40:17.237Z,92.59
2023-02-05T09:42:29.359Z,92.59
2023-02-05T09:45:12.489Z,92.88
2023-02-05T09:47:44.384Z,92.97
2023-02-05T09:50:17.921Z,92.42
2023-02-05T09:52:49.067Z,92.27
2023-02-05T09:55:24.082Z,92.17
2023-02-05T09:57:55.132Z,91.93
2023-02-05T10:00:28.738Z,91.59
2023-02-05T10:03:02.127Z,91.94
2023-02-05T10:05:36.823Z,91.95
2023-02-05T10:08:12.305Z,92.29
2023-02-05T10:10:44.272Z,90.71
2023-02-05T10:13:33.664Z,90.97
2023-02-05T10:16:34.110Z,90.00
2023-02-05T10:19:17.247Z,90.52
2023-02-05T10:22:01.867Z,90.04
2023-02-05T10:24:56.482Z,89.12
2023-02-05T10:27:32.815Z,89.50
2023-02-05T10:30:04.977Z,89.32
2023-02-05T10:32:42.883Z,88.28
2023-02-05T10:35:23.690Z,87.63
2023-02-05T10:37:53.242Z,88.12
2023-02-05T10:40:23.786Z,87.87
2023-02-05T10:42:57.819Z,87.33
2023-02-05T10:45:26.969Z,86.04
2023-02-05T10:48:18.101Z,86.40
2023-02-05T10:50:54.425Z,84.77
2023-02-05T10:53:23.677Z,86.02
2023-02-05T10:55:52.397Z,85.09
2023-02-05T10:58:33.336Z,85.02
2023-02-05T11:01:01.243Z,85.23
2023-02-05T11:03:28.174Z,85.27
2023-02-05T11:05:56.688Z,84.75
2023-02-05T11:08:37.300Z,83.96
2023-02-05T11:11:05.595Z,85.28
2023-02-05T11:13:33.908Z,84.77
2023-02-05T11:16:04.085Z,84.81
2023-02-05T11:18:36.052Z,84.54
2023-02-05T11:21:06.537Z,83.52
2023-02-05T11:23:34.040Z,83.95
2023-02-05T11:26:07.725Z,83.73
2023-02-05T11:28:37.864Z,82.54
2023-02-05T11:31:19.571Z,82.53
2023-02-05T11:33:46.630Z,82.61
2023-02-05T11:36:18.998Z,81.65
2023-02-05T11:38:48.096Z,81.54
2023-02-05T11:41:29.895Z,81.32
2023-02-05T11:44:03.365Z,82.27
2023-02-05T11:46:44.144Z,80.64
2023-02-05T11:49:20.876Z,80.61
2023-02-05T11:51:59.346Z,81.17
2023-02-05T11:54:32.542Z,81.63
2023-02-05T11:57:01.121Z,81.79
2023-02-05T11:59:29.230Z,81.33
2023-02-05T12:02:26.341Z,79.43
2023-02-05T12:04:57.922Z,81.29
2023-02-05T12:07:29.584Z,80.44
2023-02-05T12:09:56.375Z,79.99
2023-02-05T12:12:35.300Z,77.76
2023-02-05T12:15:11.983Z,79.26
2023-02-05T12:17:42.506Z,78.22
2023-02-05T12:20:23.600Z,76.42
2023-02-05T12:23:18.616Z,78.35
2023-02-05T12:26:02.636Z,79.05
2023-02-05T12:28:39.657Z,79.30
2023-02-05T12:31:24.821Z,79.31
2023-02-05T12:34:08.968Z,80.13
2023-02-05T12:36:51.122Z,80.01
2023-02-05T12:39:32.307Z,80.45
2023-02-05T12:42:10.427Z,79.88
2023-02-05T12:44:48.278Z,79.41
2023-02-05T12:47:26.682Z,76.57
2023-02-05T12:50:12.388Z,77.16
2023-02-05T12:52:54.291Z,75.49
2023-02-05T12:55:39.762Z,73.27
2023-02-05T12:58:10.787Z,75.02
2023-02-05T13:00:41.565Z,74.83
2023-02-05T13:03:22.141Z,74.65
2023-02-05T13:05:53.387Z,75.47
2023-02-05T13:08:31.803Z,74.13
2023-02-05T13:11:07.907Z,75.54
2023-02-05T13:13:45.768Z,75.16
2023-02-05T13:16:17.178Z,75.08
2023-02-05T13:18:47.200Z,71.96
2023-02-05T13:21:18.118Z,74.14
2023-02-05T13:23:48.729Z,74.16
2023-02-05T13:26:34.717Z,70.64
2023-02-05T13:29:08.499Z,71.11
2023-02-05T13:31:40.017Z,71.11
2023-02-05T13:34:09.496Z,70.35
2023-02-05T13:37:16.533Z,67.10
2023-02-05T13:40:03.003Z,65.78
2023-02-05T13:42:54.508Z,65.72
2023-02-05T13:45:57.799Z,64.71
2023-02-05T13:48:56.697Z,66.13
2023-02-05T13:51:51.043Z,65.59
2023-02-05T13:54:55.618Z,65.72
2023-02-05T13:58:07.882Z,67.16
2023-02-05T14:00:35.855Z,67.77
2023-02-05T14:03:04.289Z,67.34
2023-02-05T14:05:34.714Z,66.99
2023-02-05T14:08:02.812Z,66.74
2023-02-05T14:10:31.612Z,66.92
2023-02-05T14:13:13.330Z,66.60
2023-02-05T14:15:42.649Z,66.96
2023-02-05T14:18:13.255Z,66.73
2023-02-05T14:20:41.595Z,67.19
2023-02-05T14:23:56.550Z,66.70
2023-02-05T14:26:44.400Z,67.65
2023-02-05T14:29:40.779Z,67.31
2023-02-05T14:32:10.211Z,68.21
2023-02-05T14:34:59.156Z,68.27
2023-02-05T14:37:33.562Z,68.81
2023-02-05T14:40:14.591Z,69.18
2023-02-05T14:42:42.938Z,69.61
2023-02-05T14:45:16.798Z,70.13
2023-02-05T14:47:44.914Z,70.94
2023-02-05T14:50:22.827Z,70.88
2023-02-05T14:52:53.994Z,71.29
2023-02-05T14:55:25.249Z,71.61
2023-02-05T14:57:54.394Z,71.96
2023-02-05T15:00:30.119Z,73.25
2023-02-05T15:03:26.136Z,74.14
2023-02-05T15:05:56.999Z,74.20
2023-02-05T15:08:36.870Z,74.29
2023-02-05T15:11:11.484Z,74.76
2023-02-05T15:13:38.610Z,75.31
2023-02-05T15:16:24.547Z,76.15
2023-02-05T15:18:55.021Z,77.31
2023-02-05T15:21:27.088Z,77.94
2023-02-05T15:24:01.090Z,78.03
2023-02-05T15:26:36.339Z,78.67
2023-02-05T15:29:06.493Z,78.45
2023-02-05T15:31:41.230Z,79.79
2023-02-05T15:34:33.173Z,80.57
2023-02-05T15:37:06.372Z,79.93
2023-02-05T15:39:46.463Z,79.59
2023-02-05T15:42:19.178Z,79.80
2023-02-05T15:44:45.959Z,79.61
2023-02-05T15:47:18.476Z,80.25
2023-02-05T15:49:48.310Z,80.03
2023-02-05T15:52:19.456Z,81.47
2023-02-05T15:54:46.654Z,79.66
2023-02-05T15:57:19.750Z,81.42
2023-02-05T15:59:47.002Z,81.29
2023-02-05T16:02:18.323Z,81.44
2023-02-05T16:04:44.959Z,83.56
2023-02-05T16:07:21.239Z,81.81
2023-02-05T16:09:51.265Z,81.40
2023-02-05T16:12:27.581Z,81.52
2023-02-05T16:15:00.254Z,81.79
2023-02-05T16:17:39.586Z,82.64
2023-02-05T16:20:21.167Z,83.41
2023-02-05T16:22:53.144Z,82.78
2023-02-05T16:25:32.355Z,83.14
2023-02-05T16:28:00.997Z,84.66
2023-02-05T16:30:34.676Z,84.78
2023-02-05T16:33:06.825Z,85.78
2023-02-05T16:35:39.856Z,86.28
2023-02-05T16:38:15.059Z,85.42
2023-02-05T16:40:46.403Z,84.15
2023-02-05T16:43:18.882Z,86.45
2023-02-05T16:46:33.256Z,85.33
2023-02-05T16:49:24.521Z,86.00
2023-02-05T16:51:55.663Z,85.52
2023-02-05T16:54:31.731Z,87.46
2023-02-05T16:57:03.616Z,86.93
2023-02-05T16:59:33.708Z,85.20
2023-02-05T17:02:01.132Z,84.61
2023-02-05T17:04:33.781Z,86.50
2023-02-05T17:07:05.627Z,86.08
2023-02-05T17:09:40.368Z,85.02
2023-02-05T17:12:37.273Z,86.17
2023-02-05T17:15:34.507Z,87.64
2023-02-05T17:18:22.721Z,88.23
2023-02-05T17:20:51.336Z,87.06
2023-02-05T17:23:18.370Z,87.35
2023-02-05T17:25:52.375Z,88.07
2023-02-05T17:28:21.949Z,88.19
2023-02-05T17:30:50.438Z,86.53
2023-02-05T17:33:20.532Z,88.54
2023-02-05T17:35:47.636Z,88.43
2023-02-05T17:38:16.829Z,87.87
2023-02-05T17:40:45.672Z,87.52
2023-02-05T17:43:12.889Z,87.07
2023-02-05T17:45:41.039Z,88.52
2023-02-05T17:48:09.240Z,88.10
2023-02-05T17:50:36.904Z,88.33
2023-02-05T17:53:04.173Z,87.77
2023-02-05T17:55:33.741Z,87.68
2023-02-05T17:58:00.594Z,87.69
2023-02-05T18:00:29.151Z,88.74
2023-02-05T18:02:56.357Z,89.34
2023-02-05T18:05:26.010Z,88.68
2023-02-05T18:07:56.048Z,88.94
2023-02-05T18:10:25.857Z,88.66
2023-02-05T18:12:55.377Z,88.50
2023-02-05T18:15:22.702Z,88.36
2023-02-05T18:17:52.384Z,88.25
2023-02-05T18:20:20.562Z,89.31
2023-02-05T18:22:47.518Z,88.47
2023-02-05T18:25:17.677Z,88.87
2023-02-05T18:27:44.982Z,88.87
2023-02-05T18:30:14.209Z,89.25
2023-02-05T18:32:41.287Z,89.46
2023-02-05T18:35:09.325Z,89.90
2023-02-05T18:37:37.226Z,90.22
2023-02-05T18:40:07.033Z,88.83
2023-02-05T18:42:34.240Z,89.32
2023-02-05T18:45:01.179Z,89.18
2023-02-05T18:47:29.559Z,88.73
2023-02-05T18:49:56.339Z,88.65
2023-02-05T18:52:23.166Z,89.05
2023-02-05T18:54:52.950Z,89.43
2023-02-05T18:57:20.498Z,89.61
2023-02-05T18:59:47.453Z,90.77
2023-02-05T19:02:16.092Z,89.54
2023-02-05T19:04:46.223Z,91.52
2023-02-05T19:07:13.693Z,92.02
2023-02-05T19:09:40.907Z,91.15
2023-02-05T19:12:11.423Z,90.93
2023-02-05T19:14:38.308Z,90.70
2023-02-05T19:17:05.383Z,91.41
2023-02-05T19:19:35.352Z,91.55
2023-02-05T19:22:26.218Z,91.57
2023-02-05T19:24:53.424Z,90.71
2023-02-05T19:27:20.860Z,91.33
2023-02-05T19:29:50.849Z,91.08
2023-02-05T19:32:18.429Z,91.55
2023-02-05T19:34:45.442Z,91.25
2023-02-05T19:37:12.611Z,91.64
2023-02-05T19:39:43.635Z,91.77
2023-02-05T19:42:10.710Z,91.92
2023-02-05T19:44:37.858Z,91.82
2023-02-05T19:47:05.202Z,91.18
2023-02-05T19:49:33.586Z,91.40
2023-02-05T19:52:00.710Z,91.55
2023-02-05T19:54:31.066Z,91.33
2023-02-05T19:57:00.533Z,91.84
2023-02-05T19:59:30.556Z,91.58
2023-02-05T20:01:57.909Z,91.96
2023-02-05T20:04:26.289Z,91.65
2023-02-05T20:06:56.635Z,91.44
2023-02-05T20:09:24.930Z,91.04
2023-02-05T20:11:53.387Z,91.63
2023-02-05T20:14:24.595Z,91.27
2023-02-05T20:16:51.924Z,91.01
2023-02-05T20:19:20.478Z,91.07
2023-02-05T20:21:48.428Z,91.13
2023-02-05T20:24:16.712Z,91.38
2023-02-05T20:26:47.994Z,90.86
2023-02-05T20:29:15.650Z,91.24
2023-02-05T20:31:48.333Z,91.40
2023-02-05T20:34:23.663Z,91.80
2023-02-05T20:36:55.100Z,91.84
2023-02-05T20:39:25.637Z,92.38
2023-02-05T20:41:53.080Z,91.96
2023-02-05T20:44:21.040Z,91.46
2023-02-05T20:46:50.058Z,92.01
2023-02-05T20:49:17.497Z,91.44
2023-02-05T20:51:44.308Z,91.00
2023-02-05T20:54:11.627Z,91.47
2023-02-05T20:56:41.273Z,92.63
2023-02-05T20:59:09.300Z,92.21
2023-02-05T21:01:37.716Z,91.73
2023-02-05T21:04:08.002Z,91.29
2023-02-05T21:06:36.593Z,91.79
2023-02-05T21:09:03.804Z,91.21
2023-02-05T21:11:31.127Z,91.34
2023-02-05T21:14:00.640Z,91.05
2023-02-05T21:16:28.282Z,90.72
2023-02-05T21:18:56.206Z,91.02
2023-02-05T21:21:26.199Z,91.21
2023-02-05T21:23:54.488Z,90.95
2023-02-05T21:26:26.240Z,90.87
2023-02-05T21:28:57.423Z,90.89
2023-02-05T21:31:25.749Z,91.58
2023-02-05T21:34:09.518Z,91.15
2023-02-05T21:36:54.289Z,91.25
2023-02-05T21:40:09.251Z,91.20
2023-02-05T21:42:41.103Z,90.90
2023-02-05T21:45:09.789Z,91.49
2023-02-05T21:47:36.943Z,91.29
2023-02-05T21:50:08.239Z,91.53
2023-02-05T21:52:36.288Z,92.44
2023-02-05T21:55:25.072Z,93.32
2023-02-05T21:57:54.083Z,92.30
2023-02-05T22:00:21.486Z,92.18
2023-02-05T22:02:57.270Z,92.66
2023-02-05T22:05:26.889Z,93.51
2023-02-05T22:08:11.573Z,92.54
2023-02-05T22:10:41.734Z,93.43
2023-02-05T22:13:08.562Z,93.56
2023-02-05T22:15:37.086Z,93.75
2023-02-05T22:18:10.050Z,94.06
2023-02-05T22:20:42.266Z,94.02
2023-02-05T22:23:11.712Z,94.42
2023-02-05T22:25:49.280Z,94.00
2023-02-05T22:28:19.091Z,93.71
2023-02-05T22:30:49.173Z,94.15
2023-02-05T22:33:16.686Z,94.10
2023-02-05T22:35:44.684Z,93.82
2023-02-05T22:38:14.673Z,93.40
2023-02-05T22:40:41.516Z,93.23
2023-02-05T22:43:11.263Z,93.87
2023-02-05T22:45:41.291Z,93.41
2023-02-05T22:48:11.093Z,93.94
2023-02-05T22:50:41.685Z,93.97
2023-02-05T22:53:09.525Z,94.13
2023-02-05T22:55:43.336Z,93.71
2023-02-05T22:58:10.438Z,93.89
2023-02-05T23:00:39.541Z,94.10
2023-02-05T23:03:06.358Z,94.19
2023-02-05T23:05:34.477Z,94.32
2023-02-05T23:08:02.945Z,94.43
2023-02-05T23:10:30.466Z,94.96
2023-02-05T23:13:00.987Z,94.91
2023-02-05T23:15:27.966Z,94.29
2023-02-05T23:17:55.390Z,94.23
2023-02-05T23:20:22.810Z,94.97
2023-02-05T23:22:56.945Z,95.18
2023-02-05T23:25:28.624Z,94.33
2023-02-05T23:28:08.178Z,94.44
2023-02-05T23:30:36.682Z,94.87
2023-02-05T23:33:06.170Z,94.63
2023-02-05T23:35:43.563Z,94.38
2023-02-05T23:38:13.151Z,94.58
2023-02-05T23:40:40.333Z,94.49
2023-02-05T23:43:09.301Z,94.34
2023-02-05T23:45:43.791Z,94.42
2023-02-05T23:48:26.483Z,94.73
2023-02-05T23:50:54.766Z,94.65
2023-02-05T23:53:21.779Z,94.62
2023-02-05T23:55:51.209Z,94.61
2023-02-05T23:58:19.539Z,94.30
